sensor_id;sensor_type;location;lat;lon;timestamp;P1;durP1;ratioP1;P2;durP2;ratioP2
795;SDS011;381;48.770;9.188;2023-06-22T00:04:34;9.30;;;8.40;;
795;SDS011;381;48.770;9.188;2023-06-22T00:09:38;8.87;;;8.07;;
795;SDS011;381;48.770;9.188;2023-06-22T00:14:40;8.63;;;7.87;;
795;SDS011;381;48.770;9.188;2023-06-22T00:19:42;9.00;;;8.30;;
795;SDS011;381;48.770;9.188;2023-06-22T00:24:45;9.10;;;8.30;;
795;SDS011;381;48.770;9.188;2023-06-22T00:29:48;9.30;;;8.50;;
795;SDS011;381;48.770;9.188;2023-06-22T00:34:50;8.70;;;7.90;;
795;SDS011;381;48.770;9.188;2023-06-22T00:39:53;9.70;;;8.90;;
795;SDS011;381;48.770;9.188;2023-06-22T00:44:56;9.17;;;8.37;;
795;SDS011;381;48.770;9.188;2023-06-22T00:49:59;9.30;;;8.17;;
795;SDS011;381;48.770;9.188;2023-06-22T00:55:03;9.77;;;8.97;;
795;SDS011;381;48.770;9.188;2023-06-22T01:00:07;10.00;;;9.20;;
795;SDS011;381;48.770;9.188;2023-06-22T01:05:12;8.97;;;7.83;;
795;SDS011;381;48.770;9.188;2023-06-22T01:10:19;8.70;;;7.90;;
795;SDS011;381;48.770;9.188;2023-06-22T01:15:28;9.97;;;9.10;;
795;SDS011;381;48.770;9.188;2023-06-22T01:20:34;10.00;;;9.17;;
795;SDS011;381;48.770;9.188;2023-06-22T01:25:45;10.23;;;8.40;;
795;SDS011;381;48.770;9.188;2023-06-22T01:30:51;9.47;;;8.63;;
795;SDS011;381;48.770;9.188;2023-06-22T01:36:48;10.40;;;8.03;;
795;SDS011;381;48.770;9.188;2023-06-22T01:42:09;10.10;;;9.20;;
795;SDS011;381;48.770;9.188;2023-06-22T01:47:31;9.27;;;8.50;;
795;SDS011;381;48.770;9.188;2023-06-22T01:52:37;8.87;;;8.20;;
795;SDS011;381;48.770;9.188;2023-06-22T01:57:49;9.33;;;8.43;;
795;SDS011;381;48.770;9.188;2023-06-22T02:03:18;8.47;;;7.77;;
795;SDS011;381;48.770;9.188;2023-06-22T02:08:41;9.40;;;8.60;;
795;SDS011;381;48.770;9.188;2023-06-22T02:13:57;9.17;;;8.47;;
795;SDS011;381;48.770;9.188;2023-06-22T02:25:13;9.20;;;8.40;;
795;SDS011;381;48.770;9.188;2023-06-22T02:30:47;8.10;;;7.50;;
795;SDS011;381;48.770;9.188;2023-06-22T02:36:06;10.03;;;9.10;;
795;SDS011;381;48.770;9.188;2023-06-22T02:41:13;11.53;;;9.77;;
795;SDS011;381;48.770;9.188;2023-06-22T02:46:18;8.40;;;7.80;;
795;SDS011;381;48.770;9.188;2023-06-22T02:51:22;10.40;;;9.60;;
795;SDS011;381;48.770;9.188;2023-06-22T02:56:28;10.50;;;9.50;;
795;SDS011;381;48.770;9.188;2023-06-22T03:01:34;12.07;;;11.07;;
795;SDS011;381;48.770;9.188;2023-06-22T03:06:45;11.20;;;10.20;;
795;SDS011;381;48.770;9.188;2023-06-22T03:11:51;11.67;;;10.57;;
795;SDS011;381;48.770;9.188;2023-06-22T03:17:05;10.50;;;9.50;;
795;SDS011;381;48.770;9.188;2023-06-22T03:22:12;11.17;;;10.20;;
795;SDS011;381;48.770;9.188;2023-06-22T03:27:20;10.93;;;10.20;;
795;SDS011;381;48.770;9.188;2023-06-22T03:32:22;11.13;;;10.07;;
795;SDS011;381;48.770;9.188;2023-06-22T03:37:26;11.10;;;10.10;;
795;SDS011;381;48.770;9.188;2023-06-22T03:42:28;12.23;;;11.10;;
795;SDS011;381;48.770;9.188;2023-06-22T03:47:30;11.90;;;10.80;;
795;SDS011;381;48.770;9.188;2023-06-22T03:52:35;10.60;;;9.80;;
795;SDS011;381;48.770;9.188;2023-06-22T03:57:37;10.60;;;9.83;;
795;SDS011;381;48.770;9.188;2023-06-22T04:02:39;10.13;;;9.33;;
795;SDS011;381;48.770;9.188;2023-06-22T04:07:43;11.10;;;10.20;;
795;SDS011;381;48.770;9.188;2023-06-22T04:12:48;11.17;;;10.30;;
795;SDS011;381;48.770;9.188;2023-06-22T04:17:50;12.23;;;11.17;;
795;SDS011;381;48.770;9.188;2023-06-22T04:22:54;12.30;;;11.00;;
795;SDS011;381;48.770;9.188;2023-06-22T04:27:56;11.07;;;10.27;;
795;SDS011;381;48.770;9.188;2023-06-22T04:32:58;12.90;;;10.90;;
795;SDS011;381;48.770;9.188;2023-06-22T04:38:01;11.70;;;10.50;;
795;SDS011;381;48.770;9.188;2023-06-22T04:43:03;9.97;;;9.17;;
795;SDS011;381;48.770;9.188;2023-06-22T04:48:06;10.90;;;10.00;;
795;SDS011;381;48.770;9.188;2023-06-22T04:53:11;11.87;;;10.87;;
795;SDS011;381;48.770;9.188;2023-06-22T04:58:13;11.10;;;10.23;;
795;SDS011;381;48.770;9.188;2023-06-22T05:03:15;13.63;;;12.43;;
795;SDS011;381;48.770;9.188;2023-06-22T05:08:20;12.37;;;11.07;;
795;SDS011;381;48.770;9.188;2023-06-22T05:13:26;12.50;;;11.60;;
795;SDS011;381;48.770;9.188;2023-06-22T05:18:31;13.60;;;11.97;;
795;SDS011;381;48.770;9.188;2023-06-22T05:23:36;12.13;;;11.13;;
795;SDS011;381;48.770;9.188;2023-06-22T05:28:41;12.40;;;11.00;;
795;SDS011;381;48.770;9.188;2023-06-22T05:33:46;12.07;;;11.07;;
795;SDS011;381;48.770;9.188;2023-06-22T05:38:51;13.70;;;12.20;;
795;SDS011;381;48.770;9.188;2023-06-22T05:43:55;12.23;;;11.10;;
795;SDS011;381;48.770;9.188;2023-06-22T05:48:57;9.80;;;9.07;;
795;SDS011;381;48.770;9.188;2023-06-22T05:54:00;9.50;;;8.60;;
795;SDS011;381;48.770;9.188;2023-06-22T05:59:02;10.13;;;9.33;;
795;SDS011;381;48.770;9.188;2023-06-22T06:04:05;10.17;;;9.20;;
795;SDS011;381;48.770;9.188;2023-06-22T06:09:09;9.73;;;8.80;;
795;SDS011;381;48.770;9.188;2023-06-22T06:14:12;9.60;;;8.70;;
795;SDS011;381;48.770;9.188;2023-06-22T06:19:14;10.23;;;9.40;;
795;SDS011;381;48.770;9.188;2023-06-22T06:24:18;10.73;;;7.73;;
795;SDS011;381;48.770;9.188;2023-06-22T06:29:21;8.50;;;7.70;;
795;SDS011;381;48.770;9.188;2023-06-22T06:34:24;7.57;;;6.87;;
795;SDS011;381;48.770;9.188;2023-06-22T06:39:27;9.17;;;8.37;;
795;SDS011;381;48.770;9.188;2023-06-22T06:44:29;8.50;;;7.80;;
795;SDS011;381;48.770;9.188;2023-06-22T06:49:34;8.27;;;7.67;;
795;SDS011;381;48.770;9.188;2023-06-22T06:54:38;9.73;;;8.73;;
795;SDS011;381;48.770;9.188;2023-06-22T06:59:42;6.73;;;6.03;;
795;SDS011;381;48.770;9.188;2023-06-22T07:04:48;8.63;;;7.70;;
795;SDS011;381;48.770;9.188;2023-06-22T07:09:52;7.47;;;6.77;;
795;SDS011;381;48.770;9.188;2023-06-22T07:14:57;8.73;;;7.17;;
795;SDS011;381;48.770;9.188;2023-06-22T07:20:04;8.17;;;6.60;;
795;SDS011;381;48.770;9.188;2023-06-22T07:25:11;7.03;;;6.43;;
795;SDS011;381;48.770;9.188;2023-06-22T07:30:15;6.80;;;6.23;;
795;SDS011;381;48.770;9.188;2023-06-22T07:35:18;6.47;;;5.83;;
795;SDS011;381;48.770;9.188;2023-06-22T07:40:22;7.37;;;6.77;;
795;SDS011;381;48.770;9.188;2023-06-22T07:45:24;6.40;;;5.20;;
795;SDS011;381;48.770;9.188;2023-06-22T07:50:26;6.33;;;5.83;;
795;SDS011;381;48.770;9.188;2023-06-22T07:55:29;6.00;;;5.50;;
795;SDS011;381;48.770;9.188;2023-06-22T08:00:33;6.83;;;6.20;;
795;SDS011;381;48.770;9.188;2023-06-22T08:05:40;9.50;;;5.73;;
795;SDS011;381;48.770;9.188;2023-06-22T08:10:43;7.20;;;6.60;;
795;SDS011;381;48.770;9.188;2023-06-22T08:15:45;6.47;;;5.87;;
795;SDS011;381;48.770;9.188;2023-06-22T08:20:47;6.80;;;6.20;;
795;SDS011;381;48.770;9.188;2023-06-22T08:25:51;6.27;;;5.40;;
795;SDS011;381;48.770;9.188;2023-06-22T08:30:53;10.43;;;6.50;;
795;SDS011;381;48.770;9.188;2023-06-22T08:35:57;6.67;;;6.13;;
795;SDS011;381;48.770;9.188;2023-06-22T08:41:01;5.13;;;4.63;;
795;SDS011;381;48.770;9.188;2023-06-22T08:46:03;5.47;;;4.97;;
795;SDS011;381;48.770;9.188;2023-06-22T08:51:05;5.50;;;4.90;;
795;SDS011;381;48.770;9.188;2023-06-22T08:56:09;6.07;;;5.30;;
795;SDS011;381;48.770;9.188;2023-06-22T09:01:11;8.97;;;6.03;;
795;SDS011;381;48.770;9.188;2023-06-22T09:06:15;5.97;;;5.37;;
795;SDS011;381;48.770;9.188;2023-06-22T09:11:19;9.07;;;5.77;;
795;SDS011;381;48.770;9.188;2023-06-22T09:16:21;5.57;;;5.00;;
795;SDS011;381;48.770;9.188;2023-06-22T09:21:23;6.90;;;5.93;;
795;SDS011;381;48.770;9.188;2023-06-22T09:26:27;7.63;;;5.37;;
795;SDS011;381;48.770;9.188;2023-06-22T09:31:29;6.83;;;6.13;;
795;SDS011;381;48.770;9.188;2023-06-22T09:36:31;8.33;;;6.37;;
795;SDS011;381;48.770;9.188;2023-06-22T09:41:35;8.67;;;5.63;;
795;SDS011;381;48.770;9.188;2023-06-22T09:46:37;8.98;;;5.75;;
795;SDS011;381;48.770;9.188;2023-06-22T09:51:48;6.00;;;5.47;;
795;SDS011;381;48.770;9.188;2023-06-22T09:56:52;7.80;;;6.97;;
795;SDS011;381;48.770;9.188;2023-06-22T10:01:54;9.32;;;5.85;;
795;SDS011;381;48.770;9.188;2023-06-22T10:06:56;6.05;;;5.45;;
795;SDS011;381;48.770;9.188;2023-06-22T10:12:00;6.33;;;5.73;;
795;SDS011;381;48.770;9.188;2023-06-22T10:17:02;7.50;;;5.87;;
795;SDS011;381;48.770;9.188;2023-06-22T10:22:07;6.23;;;4.60;;
795;SDS011;381;48.770;9.188;2023-06-22T10:27:11;5.63;;;5.13;;
795;SDS011;381;48.770;9.188;2023-06-22T10:32:13;5.90;;;5.30;;
795;SDS011;381;48.770;9.188;2023-06-22T10:37:16;10.07;;;7.33;;
795;SDS011;381;48.770;9.188;2023-06-22T10:42:19;6.53;;;5.30;;
795;SDS011;381;48.770;9.188;2023-06-22T10:47:21;6.07;;;5.10;;
795;SDS011;381;48.770;9.188;2023-06-22T10:52:23;6.93;;;6.23;;
795;SDS011;381;48.770;9.188;2023-06-22T10:57:27;6.93;;;5.80;;
795;SDS011;381;48.770;9.188;2023-06-22T11:02:29;6.57;;;6.07;;
795;SDS011;381;48.770;9.188;2023-06-22T11:07:31;6.50;;;5.90;;
795;SDS011;381;48.770;9.188;2023-06-22T11:12:35;6.87;;;6.27;;
795;SDS011;381;48.770;9.188;2023-06-22T11:17:37;8.57;;;5.90;;
795;SDS011;381;48.770;9.188;2023-06-22T11:22:39;10.50;;;6.53;;
795;SDS011;381;48.770;9.188;2023-06-22T11:27:43;7.10;;;6.40;;
795;SDS011;381;48.770;9.188;2023-06-22T11:32:46;8.60;;;7.30;;
795;SDS011;381;48.770;9.188;2023-06-22T11:37:48;7.53;;;6.00;;
795;SDS011;381;48.770;9.188;2023-06-22T11:42:51;9.27;;;6.70;;
795;SDS011;381;48.770;9.188;2023-06-22T11:47:53;8.43;;;6.63;;
795;SDS011;381;48.770;9.188;2023-06-22T11:52:55;11.33;;;7.10;;
795;SDS011;381;48.770;9.188;2023-06-22T11:57:59;7.70;;;6.87;;
795;SDS011;381;48.770;9.188;2023-06-22T12:03:03;6.40;;;5.80;;
795;SDS011;381;48.770;9.188;2023-06-22T12:08:05;8.67;;;6.53;;
795;SDS011;381;48.770;9.188;2023-06-22T12:13:09;7.30;;;6.17;;
795;SDS011;381;48.770;9.188;2023-06-22T12:18:11;8.23;;;7.00;;
795;SDS011;381;48.770;9.188;2023-06-22T12:23:14;7.20;;;6.50;;
795;SDS011;381;48.770;9.188;2023-06-22T12:28:18;6.67;;;6.10;;
795;SDS011;381;48.770;9.188;2023-06-22T12:33:20;11.00;;;7.17;;
795;SDS011;381;48.770;9.188;2023-06-22T12:38:22;7.97;;;6.50;;
795;SDS011;381;48.770;9.188;2023-06-22T12:43:27;9.50;;;6.80;;
795;SDS011;381;48.770;9.188;2023-06-22T12:48:29;10.20;;;6.87;;
795;SDS011;381;48.770;9.188;2023-06-22T12:53:31;6.93;;;6.23;;
795;SDS011;381;48.770;9.188;2023-06-22T12:58:34;8.23;;;6.33;;
795;SDS011;381;48.770;9.188;2023-06-22T13:03:37;8.10;;;6.60;;
795;SDS011;381;48.770;9.188;2023-06-22T13:08:39;9.47;;;7.10;;
795;SDS011;381;48.770;9.188;2023-06-22T13:13:43;7.90;;;7.10;;
795;SDS011;381;48.770;9.188;2023-06-22T13:18:46;7.63;;;6.93;;
795;SDS011;381;48.770;9.188;2023-06-22T13:23:48;7.90;;;7.10;;
795;SDS011;381;48.770;9.188;2023-06-22T13:28:52;9.67;;;7.10;;
795;SDS011;381;48.770;9.188;2023-06-22T13:33:54;11.60;;;7.03;;
795;SDS011;381;48.770;9.188;2023-06-22T13:38:56;7.93;;;7.13;;
795;SDS011;381;48.770;9.188;2023-06-22T13:44:00;7.00;;;6.30;;
795;SDS011;381;48.770;9.188;2023-06-22T13:49:02;8.83;;;6.80;;
795;SDS011;381;48.770;9.188;2023-06-22T13:54:04;10.17;;;7.87;;
795;SDS011;381;48.770;9.188;2023-06-22T13:59:07;8.33;;;7.53;;
795;SDS011;381;48.770;9.188;2023-06-22T14:04:10;7.57;;;6.87;;
795;SDS011;381;48.770;9.188;2023-06-22T14:09:13;8.63;;;6.27;;
795;SDS011;381;48.770;9.188;2023-06-22T14:14:16;7.77;;;6.00;;
795;SDS011;381;48.770;9.188;2023-06-22T14:19:18;10.23;;;5.70;;
795;SDS011;381;48.770;9.188;2023-06-22T14:24:20;13.27;;;6.23;;
795;SDS011;381;48.770;9.188;2023-06-22T14:29:25;11.57;;;6.70;;
795;SDS011;381;48.770;9.188;2023-06-22T14:34:27;6.00;;;5.50;;
795;SDS011;381;48.770;9.188;2023-06-22T14:39:30;8.07;;;4.90;;
795;SDS011;381;48.770;9.188;2023-06-22T14:44:33;10.20;;;6.00;;
795;SDS011;381;48.770;9.188;2023-06-22T14:49:35;7.10;;;4.17;;
795;SDS011;381;48.770;9.188;2023-06-22T14:54:39;4.83;;;4.23;;
795;SDS011;381;48.770;9.188;2023-06-22T15:00:13;6.70;;;4.27;;
795;SDS011;381;48.770;9.188;2023-06-22T15:05:15;5.73;;;3.67;;
795;SDS011;381;48.770;9.188;2023-06-22T15:10:17;9.07;;;4.13;;
795;SDS011;381;48.770;9.188;2023-06-22T15:15:23;4.27;;;3.20;;
795;SDS011;381;48.770;9.188;2023-06-22T15:20:25;5.80;;;3.40;;
795;SDS011;381;48.770;9.188;2023-06-22T15:25:27;5.43;;;3.20;;
795;SDS011;381;48.770;9.188;2023-06-22T15:30:31;10.77;;;5.00;;
795;SDS011;381;48.770;9.188;2023-06-22T15:35:33;4.30;;;3.23;;
795;SDS011;381;48.770;9.188;2023-06-22T15:40:35;5.80;;;3.43;;
795;SDS011;381;48.770;9.188;2023-06-22T15:45:38;5.60;;;3.50;;
795;SDS011;381;48.770;9.188;2023-06-22T15:50:41;9.00;;;3.70;;
795;SDS011;381;48.770;9.188;2023-06-22T15:55:43;6.73;;;4.30;;
795;SDS011;381;48.770;9.188;2023-06-22T16:00:48;9.70;;;4.30;;
795;SDS011;381;48.770;9.188;2023-06-22T16:05:51;4.23;;;3.50;;
795;SDS011;381;48.770;9.188;2023-06-22T16:10:54;8.33;;;4.23;;
795;SDS011;381;48.770;9.188;2023-06-22T16:15:57;11.50;;;4.40;;
795;SDS011;381;48.770;9.188;2023-06-22T16:20:59;5.70;;;3.50;;
795;SDS011;381;48.770;9.188;2023-06-22T16:26:01;6.27;;;4.33;;
795;SDS011;381;48.770;9.188;2023-06-22T16:31:05;8.13;;;3.80;;
795;SDS011;381;48.770;9.188;2023-06-22T16:36:07;6.63;;;3.80;;
795;SDS011;381;48.770;9.188;2023-06-22T16:41:09;5.90;;;3.90;;
795;SDS011;381;48.770;9.188;2023-06-22T16:46:13;9.83;;;4.33;;
795;SDS011;381;48.770;9.188;2023-06-22T16:51:15;6.23;;;3.93;;
795;SDS011;381;48.770;9.188;2023-06-22T16:56:17;7.33;;;3.97;;
795;SDS011;381;48.770;9.188;2023-06-22T17:01:21;4.47;;;3.40;;
795;SDS011;381;48.770;9.188;2023-06-22T17:06:24;3.67;;;3.33;;
795;SDS011;381;48.770;9.188;2023-06-22T17:11:27;8.90;;;4.30;;
795;SDS011;381;48.770;9.188;2023-06-22T17:16:31;10.73;;;3.80;;
795;SDS011;381;48.770;9.188;2023-06-22T17:21:35;9.70;;;5.00;;
795;SDS011;381;48.770;9.188;2023-06-22T17:26:37;10.53;;;3.60;;
795;SDS011;381;48.770;9.188;2023-06-22T17:31:41;11.00;;;4.20;;
795;SDS011;381;48.770;9.188;2023-06-22T17:36:45;4.97;;;3.57;;
795;SDS011;381;48.770;9.188;2023-06-22T17:41:49;8.57;;;4.23;;
795;SDS011;381;48.770;9.188;2023-06-22T17:46:53;8.70;;;4.10;;
795;SDS011;381;48.770;9.188;2023-06-22T17:51:56;6.07;;;3.30;;
795;SDS011;381;48.770;9.188;2023-06-22T17:56:59;5.63;;;3.70;;
795;SDS011;381;48.770;9.188;2023-06-22T18:02:06;5.97;;;3.40;;
795;SDS011;381;48.770;9.188;2023-06-22T18:07:10;6.70;;;3.33;;
795;SDS011;381;48.770;9.188;2023-06-22T18:12:12;9.80;;;3.77;;
795;SDS011;381;48.770;9.188;2023-06-22T18:17:16;7.90;;;3.00;;
795;SDS011;381;48.770;9.188;2023-06-22T18:22:21;5.20;;;3.10;;
795;SDS011;381;48.770;9.188;2023-06-22T18:27:24;4.13;;;2.73;;
795;SDS011;381;48.770;9.188;2023-06-22T18:32:29;4.40;;;3.13;;
795;SDS011;381;48.770;9.188;2023-06-22T18:37:31;5.90;;;4.23;;
795;SDS011;381;48.770;9.188;2023-06-22T18:42:38;9.10;;;2.70;;
795;SDS011;381;48.770;9.188;2023-06-22T18:47:47;7.60;;;2.43;;
795;SDS011;381;48.770;9.188;2023-06-22T18:53:03;5.90;;;3.73;;
795;SDS011;381;48.770;9.188;2023-06-22T18:58:12;4.93;;;3.17;;
795;SDS011;381;48.770;9.188;2023-06-22T19:03:31;6.83;;;3.23;;
795;SDS011;381;48.770;9.188;2023-06-22T19:14:17;3.13;;;2.77;;
795;SDS011;381;48.770;9.188;2023-06-22T19:19:21;4.53;;;3.70;;
795;SDS011;381;48.770;9.188;2023-06-22T19:24:29;4.13;;;2.60;;
795;SDS011;381;48.770;9.188;2023-06-22T19:29:31;4.50;;;3.27;;
795;SDS011;381;48.770;9.188;2023-06-22T19:34:35;6.00;;;3.83;;
795;SDS011;381;48.770;9.188;2023-06-22T19:39:44;7.10;;;3.40;;
795;SDS011;381;48.770;9.188;2023-06-22T19:44:47;7.27;;;2.97;;
795;SDS011;381;48.770;9.188;2023-06-22T19:49:58;3.80;;;2.77;;
795;SDS011;381;48.770;9.188;2023-06-22T19:55:01;3.77;;;2.97;;
795;SDS011;381;48.770;9.188;2023-06-22T20:00:06;7.50;;;3.47;;
795;SDS011;381;48.770;9.188;2023-06-22T20:05:14;4.60;;;3.00;;
795;SDS011;381;48.770;9.188;2023-06-22T20:10:17;5.90;;;3.43;;
795;SDS011;381;48.770;9.188;2023-06-22T20:15:20;8.30;;;3.63;;
795;SDS011;381;48.770;9.188;2023-06-22T20:20:25;9.70;;;3.80;;
795;SDS011;381;48.770;9.188;2023-06-22T20:25:29;7.10;;;3.93;;
795;SDS011;381;48.770;9.188;2023-06-22T20:30:32;11.13;;;8.47;;
795;SDS011;381;48.770;9.188;2023-06-22T20:35:36;9.73;;;4.17;;
795;SDS011;381;48.770;9.188;2023-06-22T20:40:38;4.63;;;3.90;;
795;SDS011;381;48.770;9.188;2023-06-22T20:45:40;4.60;;;3.63;;
795;SDS011;381;48.770;9.188;2023-06-22T20:50:44;4.80;;;3.90;;
795;SDS011;381;48.770;9.188;2023-06-22T20:55:46;9.10;;;4.70;;
795;SDS011;381;48.770;9.188;2023-06-22T21:00:48;8.70;;;4.40;;
795;SDS011;381;48.770;9.188;2023-06-22T21:05:52;6.60;;;4.03;;
795;SDS011;381;48.770;9.188;2023-06-22T21:10:55;3.87;;;3.47;;
795;SDS011;381;48.770;9.188;2023-06-22T21:15:57;5.07;;;3.53;;
795;SDS011;381;48.770;9.188;2023-06-22T21:21:00;4.00;;;3.30;;
795;SDS011;381;48.770;9.188;2023-06-22T21:26:02;3.37;;;3.10;;
795;SDS011;381;48.770;9.188;2023-06-22T21:31:05;3.13;;;2.30;;
795;SDS011;381;48.770;9.188;2023-06-22T21:36:08;3.10;;;1.77;;
795;SDS011;381;48.770;9.188;2023-06-22T21:41:10;3.03;;;1.60;;
795;SDS011;381;48.770;9.188;2023-06-22T21:46:12;1.47;;;1.37;;
795;SDS011;381;48.770;9.188;2023-06-22T21:51:16;2.33;;;1.80;;
795;SDS011;381;48.770;9.188;2023-06-22T21:56:18;1.80;;;1.70;;
795;SDS011;381;48.770;9.188;2023-06-22T22:01:20;1.93;;;1.70;;
795;SDS011;381;48.770;9.188;2023-06-22T22:06:23;1.53;;;1.40;;
795;SDS011;381;48.770;9.188;2023-06-22T22:11:26;1.90;;;1.60;;
795;SDS011;381;48.770;9.188;2023-06-22T22:16:29;1.30;;;1.30;;
795;SDS011;381;48.770;9.188;2023-06-22T22:21:32;1.90;;;1.80;;
795;SDS011;381;48.770;9.188;2023-06-22T22:26:34;1.73;;;1.63;;
795;SDS011;381;48.770;9.188;2023-06-22T22:31:36;1.77;;;1.63;;
795;SDS011;381;48.770;9.188;2023-06-22T22:36:40;2.87;;;2.67;;
795;SDS011;381;48.770;9.188;2023-06-22T22:41:42;2.00;;;1.90;;
795;SDS011;381;48.770;9.188;2023-06-22T22:46:44;1.93;;;1.83;;
795;SDS011;381;48.770;9.188;2023-06-22T22:51:47;1.80;;;1.70;;
795;SDS011;381;48.770;9.188;2023-06-22T22:56:50;3.90;;;2.40;;
795;SDS011;381;48.770;9.188;2023-06-22T23:01:52;1.87;;;1.77;;
795;SDS011;381;48.770;9.188;2023-06-22T23:06:56;2.00;;;1.90;;
795;SDS011;381;48.770;9.188;2023-06-22T23:11:58;1.83;;;1.73;;
795;SDS011;381;48.770;9.188;2023-06-22T23:17:00;4.60;;;4.20;;
795;SDS011;381;48.770;9.188;2023-06-22T23:22:05;2.50;;;2.30;;
795;SDS011;381;48.770;9.188;2023-06-22T23:27:07;2.10;;;2.00;;
795;SDS011;381;48.770;9.188;2023-06-22T23:32:13;2.23;;;1.90;;
795;SDS011;381;48.770;9.188;2023-06-22T23:37:16;2.20;;;2.10;;
795;SDS011;381;48.770;9.188;2023-06-22T23:42:18;2.20;;;2.10;;
795;SDS011;381;48.770;9.188;2023-06-22T23:47:21;2.40;;;2.20;;
795;SDS011;381;48.770;9.188;2023-06-22T23:52:24;2.03;;;1.93;;
795;SDS011;381;48.770;9.188;2023-06-22T23:57:27;2.67;;;2.43;;
